Time;durP1;ratioP1;P1;durP2;ratioP2;P2;SDS_P1;SDS_P2;PMS_P1;PMS_P2;Temp;Humidity;BMP_temperature;BMP_pressure;BME280_temperature;BME280_humidity;BME280_pressure;Samples;Min_cycle;Max_cycle;Signal;HPM_P1;HPM_P2
2022/02/21 00:02:18;;;;;;;15.40;2.60;;;5.60;99.90;;;;;;5041062;28;20059;-62
2022/02/21 00:04:44;;;;;;;16.73;3.53;;;5.60;99.90;;;;;;5041657;28;20557;-62
2022/02/21 00:07:10;;;;;;;18.00;2.70;;;5.60;99.90;;;;;;5025533;28;20586;-59
2022/02/21 00:09:36;;;;;;;21.05;3.75;;;5.50;99.90;;;;;;5041976;28;20048;-59
2022/02/21 00:12:04;;;;;;;18.20;2.95;;;5.50;99.90;;;;;;5022467;28;20045;-59
2022/02/21 00:14:30;;;;;;;24.52;4.88;;;5.40;99.90;;;;;;5040324;28;20119;-59
2022/02/21 00:16:57;;;;;;;22.05;3.80;;;5.40;99.90;;;;;;5041727;28;20116;-59
2022/02/21 00:19:23;;;;;;;23.95;4.07;;;5.40;99.90;;;;;;5039357;28;20059;-60
2022/02/21 00:21:49;;;;;;;24.00;4.28;;;5.40;99.90;;;;;;5042355;28;20806;-59
2022/02/21 00:24:15;;;;;;;20.17;4.32;;;5.40;99.90;;;;;;5039871;28;20585;-60
2022/02/21 00:26:41;;;;;;;23.05;4.22;;;5.40;99.90;;;;;;5041589;28;20045;-59
2022/02/21 00:29:08;;;;;;;26.00;3.92;;;5.40;99.90;;;;;;5056108;28;20061;-62
2022/02/21 00:31:35;;;;;;;24.35;4.05;;;5.40;99.90;;;;;;5041551;28;20084;-60
2022/02/21 00:34:01;;;;;;;26.05;4.00;;;5.40;99.90;;;;;;5041448;28;20049;-59
2022/02/21 00:36:27;;;;;;;21.92;4.50;;;5.40;99.90;;;;;;5040751;28;20056;-60
2022/02/21 00:38:53;;;;;;;26.17;3.88;;;5.40;99.90;;;;;;5041512;28;20175;-59
2022/02/21 00:41:19;;;;;;;18.67;3.55;;;5.40;99.90;;;;;;5040302;28;20408;-62
2022/02/21 00:43:46;;;;;;;16.08;3.03;;;5.30;99.90;;;;;;5039249;28;20056;-62
2022/02/21 00:46:12;;;;;;;20.13;3.38;;;5.30;99.90;;;;;;5039309;28;20128;-60
2022/02/21 00:48:38;;;;;;;23.13;4.35;;;5.20;99.90;;;;;;5040712;28;20555;-60
2022/02/21 00:51:04;;;;;;;17.98;3.58;;;5.20;99.90;;;;;;5039784;28;20045;-60
2022/02/21 00:53:30;;;;;;;17.35;3.80;;;5.10;99.90;;;;;;5023014;28;20053;-60
2022/02/21 00:55:57;;;;;;;20.48;4.07;;;5.10;99.90;;;;;;5038315;28;20051;-60
2022/02/21 00:58:23;;;;;;;24.50;4.05;;;5.10;99.90;;;;;;5039439;28;20056;-60
2022/02/21 01:00:49;;;;;;;20.83;4.35;;;5.10;99.90;;;;;;5035748;28;20397;-60
2022/02/21 01:03:16;;;;;;;17.15;3.17;;;5.10;99.90;;;;;;5005568;28;20045;-60
2022/02/21 01:05:42;;;;;;;16.25;3.53;;;5.00;99.90;;;;;;5037934;28;20421;-60
2022/02/21 01:08:09;;;;;;;17.15;3.55;;;5.00;99.90;;;;;;5040275;28;20444;-60
2022/02/21 01:10:36;;;;;;;18.42;4.32;;;5.00;99.90;;;;;;5039406;28;20059;-60
2022/02/21 01:13:02;;;;;;;19.13;3.38;;;5.00;99.90;;;;;;5039447;28;20045;-60
2022/02/21 01:15:29;;;;;;;19.98;4.18;;;5.00;99.90;;;;;;5022751;28;20520;-60
2022/02/21 01:17:55;;;;;;;18.50;4.00;;;5.00;99.90;;;;;;5006560;28;20099;-60
2022/02/21 01:20:22;;;;;;;17.98;3.75;;;5.00;99.90;;;;;;5041143;28;20647;-60
2022/02/21 01:22:48;;;;;;;17.45;3.83;;;4.90;99.90;;;;;;5040813;28;20045;-60
2022/02/21 01:25:15;;;;;;;20.85;3.97;;;5.00;99.90;;;;;;5021108;28;20037;-60
2022/02/21 01:27:41;;;;;;;11.48;3.10;;;4.90;99.90;;;;;;5028198;28;20076;-60
2022/02/21 01:30:08;;;;;;;20.10;4.60;;;4.90;99.90;;;;;;5042138;28;20052;-61
2022/02/21 01:32:34;;;;;;;24.58;4.85;;;4.90;99.90;;;;;;5043217;28;20045;-61
2022/02/21 01:35:01;;;;;;;24.98;4.63;;;4.90;99.90;;;;;;5041199;28;20072;-61
2022/02/21 01:37:27;;;;;;;20.63;4.88;;;4.80;99.90;;;;;;5043905;28;20461;-63
2022/02/21 01:39:53;;;;;;;24.60;5.68;;;4.90;99.90;;;;;;5041959;28;20154;-63
2022/02/21 01:42:19;;;;;;;25.45;5.40;;;4.80;99.90;;;;;;5039711;28;20063;-63
2022/02/21 01:44:47;;;;;;;24.98;4.20;;;4.80;99.90;;;;;;5043546;28;20126;-63
2022/02/21 01:47:21;;;;;;;23.08;4.70;;;4.80;99.90;;;;;;5044172;28;20053;-63
2022/02/21 01:49:48;;;;;;;21.48;5.65;;;4.80;99.90;;;;;;5044172;28;20037;-63
2022/02/21 01:52:17;;;;;;;23.02;5.28;;;4.90;99.90;;;;;;5044266;28;20053;-63
2022/02/21 01:54:43;;;;;;;23.58;4.63;;;4.90;99.90;;;;;;5041675;28;20049;-63
2022/02/21 01:57:09;;;;;;;20.23;4.57;;;4.90;99.90;;;;;;5042131;28;20502;-63
2022/02/21 01:59:38;;;;;;;20.20;4.85;;;4.80;99.90;;;;;;5026925;28;20131;-63
2022/02/21 02:02:07;;;;;;;19.63;4.22;;;4.90;99.90;;;;;;5043153;28;20044;-63
2022/02/21 02:04:33;;;;;;;19.77;3.83;;;4.90;99.90;;;;;;5042645;28;20051;-63
2022/02/21 02:07:02;;;;;;;19.10;4.88;;;5.00;99.90;;;;;;5041482;28;20152;-63
2022/02/21 02:09:28;;;;;;;18.33;4.43;;;5.00;99.90;;;;;;5043711;28;20044;-63
2022/02/21 02:11:55;;;;;;;19.08;3.88;;;4.90;99.90;;;;;;5024570;28;20512;-64
2022/02/21 02:14:32;;;;;;;19.73;4.43;;;4.90;99.90;;;;;;5037693;28;20060;-63
2022/02/21 02:17:05;;;;;;;20.98;4.60;;;4.90;99.90;;;;;;5042512;28;20781;-63
2022/02/21 02:19:32;;;;;;;21.77;4.68;;;4.90;99.90;;;;;;5054620;28;20074;-63
2022/02/21 02:22:16;;;;;;;22.45;4.57;;;4.80;99.90;;;;;;5041417;28;20232;-63
2022/02/21 02:24:45;;;;;;;21.08;4.20;;;4.80;99.90;;;;;;5024723;28;20051;-62
2022/02/21 02:27:11;;;;;;;19.67;3.38;;;4.70;99.90;;;;;;5043158;28;20076;-63
2022/02/21 02:29:39;;;;;;;20.67;3.90;;;4.70;99.90;;;;;;5044055;28;20049;-63
2022/02/21 02:32:07;;;;;;;19.10;4.35;;;4.70;99.90;;;;;;5043316;28;20048;-63
2022/02/21 02:34:33;;;;;;;21.27;4.50;;;4.60;99.90;;;;;;5043233;28;20048;-65
2022/02/21 02:36:59;;;;;;;20.83;3.78;;;4.60;99.90;;;;;;5043132;28;20343;-63
2022/02/21 02:39:26;;;;;;;25.00;4.43;;;4.60;99.90;;;;;;5042097;28;20049;-63
2022/02/21 02:41:54;;;;;;;20.23;4.90;;;4.60;99.90;;;;;;5042809;28;20080;-63
2022/02/21 02:44:21;;;;;;;21.48;4.70;;;4.60;99.90;;;;;;5044121;28;20359;-63
2022/02/21 02:46:47;;;;;;;15.27;3.63;;;4.70;99.90;;;;;;5043778;28;20502;-63
2022/02/21 02:49:13;;;;;;;18.63;4.13;;;4.60;99.90;;;;;;5028489;28;20045;-63
2022/02/21 02:51:40;;;;;;;20.08;4.50;;;4.50;99.90;;;;;;5042304;28;20485;-63
2022/02/21 02:54:07;;;;;;;20.38;4.28;;;4.50;99.90;;;;;;5045325;28;20053;-63
2022/02/21 02:56:34;;;;;;;19.10;3.92;;;4.50;99.90;;;;;;5026156;28;20056;-63
2022/02/21 02:59:00;;;;;;;17.00;4.70;;;4.50;99.90;;;;;;5035044;28;20481;-63
2022/02/21 03:01:27;;;;;;;18.23;3.70;;;4.60;99.90;;;;;;5036409;28;20049;-63
2022/02/21 03:03:53;;;;;;;21.48;4.47;;;4.70;99.90;;;;;;5044724;28;20049;-63
2022/02/21 03:06:19;;;;;;;19.60;4.35;;;4.60;99.90;;;;;;5025983;28;20496;-63
2022/02/21 03:08:45;;;;;;;16.85;3.65;;;4.70;99.90;;;;;;5040838;28;20102;-59
2022/02/21 03:11:11;;;;;;;17.90;4.05;;;4.70;99.90;;;;;;5042793;28;20053;-60
2022/02/21 03:13:37;;;;;;;17.83;3.78;;;4.60;99.90;;;;;;5043185;28;20398;-60
2022/02/21 03:16:04;;;;;;;20.80;3.78;;;4.60;99.90;;;;;;5026371;28;20083;-59
2022/02/21 03:18:30;;;;;;;13.60;2.95;;;4.30;99.90;;;;;;5010159;28;20057;-59
2022/02/21 03:20:56;;;;;;;13.75;3.25;;;4.00;99.90;;;;;;5022843;28;20057;-60
2022/02/21 03:23:23;;;;;;;21.17;4.10;;;3.90;99.90;;;;;;5044001;28;20231;-60
2022/02/21 03:25:50;;;;;;;20.67;4.57;;;3.90;99.90;;;;;;5045199;28;20571;-60
2022/02/21 03:28:17;;;;;;;16.15;4.00;;;3.90;99.90;;;;;;5039519;28;20041;-60
2022/02/21 03:30:43;;;;;;;23.25;4.22;;;3.80;99.90;;;;;;5042976;28;20406;-60
2022/02/21 03:33:10;;;;;;;21.85;3.65;;;3.80;99.90;;;;;;5040950;28;20497;-59
2022/02/21 03:35:36;;;;;;;25.45;5.78;;;3.70;99.90;;;;;;5044640;28;20049;-60
2022/02/21 03:38:02;;;;;;;31.98;5.25;;;3.80;99.90;;;;;;5042664;28;20167;-60
2022/02/21 03:40:28;;;;;;;25.60;4.68;;;3.90;99.90;;;;;;5043223;28;20055;-60
2022/02/21 03:42:55;;;;;;;26.73;4.63;;;3.90;99.90;;;;;;5024190;28;20049;-62
2022/02/21 03:45:22;;;;;;;25.25;5.07;;;4.10;99.90;;;;;;5042525;28;20048;-60
2022/02/21 03:47:49;;;;;;;21.60;4.15;;;4.20;99.90;;;;;;5025647;28;20108;-60
2022/02/21 03:50:15;;;;;;;24.55;5.32;;;4.10;99.90;;;;;;5008304;28;20416;-60
2022/02/21 03:52:41;;;;;;;23.23;4.20;;;4.10;99.90;;;;;;5043040;28;20127;-63
2022/02/21 03:55:09;;;;;;;27.42;4.53;;;4.10;99.90;;;;;;5040808;28;20055;-60
2022/02/21 03:57:35;;;;;;;14.90;3.53;;;4.20;99.90;;;;;;5022396;28;20127;-60
2022/02/21 04:00:01;;;;;;;20.90;4.10;;;4.30;99.90;;;;;;5019289;28;20500;-59
2022/02/21 04:02:37;;;;;;;15.48;4.55;;;4.30;99.90;;;;;;5041711;28;20045;-62
2022/02/21 04:05:05;;;;;;;15.63;4.00;;;4.40;99.90;;;;;;5043280;28;20041;-62
2022/02/21 04:07:32;;;;;;;16.73;4.32;;;4.50;99.90;;;;;;5041526;28;20524;-63
2022/02/21 04:09:58;;;;;;;21.02;3.60;;;4.50;99.90;;;;;;5042046;28;20463;-61
2022/02/21 04:12:24;;;;;;;22.48;3.95;;;4.60;99.90;;;;;;5039631;28;20114;-60
2022/02/21 04:14:50;;;;;;;18.83;3.80;;;4.60;99.90;;;;;;5023887;28;20161;-60
2022/02/21 04:17:17;;;;;;;17.40;3.53;;;4.70;99.90;;;;;;5041131;28;20369;-62
2022/02/21 04:19:46;;;;;;;14.70;3.35;;;4.70;99.90;;;;;;5042809;28;20455;-62
2022/02/21 04:22:14;;;;;;;18.38;4.28;;;4.50;99.90;;;;;;5036810;28;20060;-60
2022/02/21 04:24:41;;;;;;;18.48;3.95;;;4.30;99.90;;;;;;5022716;28;20063;-59
2022/02/21 04:27:08;;;;;;;15.25;4.03;;;4.20;99.90;;;;;;5041662;28;20045;-62
2022/02/21 04:29:34;;;;;;;16.55;3.90;;;4.10;99.90;;;;;;5041952;28;20076;-59
2022/02/21 04:32:00;;;;;;;14.50;3.20;;;4.10;99.90;;;;;;5023619;28;20464;-59
2022/02/21 04:34:27;;;;;;;19.90;4.68;;;4.10;99.90;;;;;;5040618;28;20052;-59
2022/02/21 04:36:53;;;;;;;18.95;3.63;;;4.30;99.90;;;;;;5041501;28;20045;-62
2022/02/21 04:39:19;;;;;;;17.52;4.35;;;4.30;99.90;;;;;;5043148;28;20519;-59
2022/02/21 04:41:45;;;;;;;19.45;3.53;;;4.40;99.90;;;;;;5024626;28;20451;-59
2022/02/21 04:44:11;;;;;;;16.70;3.55;;;4.50;99.90;;;;;;5041243;28;20056;-59
2022/02/21 04:46:37;;;;;;;17.60;4.28;;;4.50;99.90;;;;;;5041809;28;20487;-62
2022/02/21 04:49:04;;;;;;;18.52;3.70;;;4.50;99.90;;;;;;5040932;28;20048;-62
2022/02/21 04:51:30;;;;;;;22.33;4.55;;;4.50;99.90;;;;;;5042037;28;20056;-62
2022/02/21 04:53:56;;;;;;;16.75;4.10;;;4.40;99.90;;;;;;5041024;28;20059;-62
2022/02/21 04:56:22;;;;;;;20.90;3.55;;;4.50;99.90;;;;;;5039870;28;20084;-62
2022/02/21 04:58:48;;;;;;;16.75;4.47;;;4.50;99.90;;;;;;5042462;28;20084;-62
2022/02/21 05:01:14;;;;;;;15.45;4.05;;;4.60;99.90;;;;;;5042474;28;20037;-62
2022/02/21 05:03:40;;;;;;;23.08;4.50;;;4.60;99.90;;;;;;5023354;28;20091;-62
2022/02/21 05:06:06;;;;;;;15.65;3.00;;;4.60;99.90;;;;;;5004042;28;20115;-62
2022/02/21 05:08:33;;;;;;;15.73;3.50;;;4.50;99.90;;;;;;5036055;28;20048;-62
2022/02/21 05:10:59;;;;;;;16.42;3.58;;;4.50;99.90;;;;;;5043137;28;20049;-63
2022/02/21 05:13:25;;;;;;;13.52;3.38;;;4.70;99.90;;;;;;5037596;28;20140;-62
2022/02/21 05:15:51;;;;;;;16.50;3.30;;;4.70;99.90;;;;;;5039173;28;20072;-62
2022/02/21 05:18:18;;;;;;;14.18;4.10;;;4.70;99.90;;;;;;5039998;28;20048;-62
2022/02/21 05:20:44;;;;;;;20.08;3.83;;;4.70;99.90;;;;;;5007042;28;20049;-62
2022/02/21 05:23:10;;;;;;;20.10;3.90;;;4.70;99.90;;;;;;5025844;28;20515;-63
2022/02/21 05:25:36;;;;;;;16.23;3.47;;;4.80;99.90;;;;;;5024862;28;20499;-62
2022/02/21 05:28:02;;;;;;;12.20;3.78;;;4.80;99.90;;;;;;5037951;28;20047;-63
2022/02/21 05:30:28;;;;;;;15.20;3.08;;;4.80;99.90;;;;;;5040293;28;20150;-62
2022/02/21 05:32:55;;;;;;;13.85;3.47;;;4.80;99.90;;;;;;5040513;28;20051;-62
2022/02/21 05:35:21;;;;;;;18.33;3.58;;;4.80;99.90;;;;;;5039154;28;20124;-62
2022/02/21 05:37:48;;;;;;;20.80;4.50;;;4.80;99.90;;;;;;5039249;28;20045;-62
2022/02/21 05:40:14;;;;;;;16.55;3.75;;;4.80;99.90;;;;;;5040745;28;20421;-63
2022/02/21 05:42:40;;;;;;;17.98;3.38;;;4.80;99.90;;;;;;5039100;28;20103;-63
2022/02/21 05:45:07;;;;;;;14.32;3.35;;;4.80;99.90;;;;;;5024567;28;20048;-60
2022/02/21 05:47:33;;;;;;;17.90;4.10;;;4.80;99.90;;;;;;5041910;28;20344;-60
2022/02/21 05:49:59;;;;;;;15.35;3.47;;;4.80;99.90;;;;;;5039288;28;20076;-60
2022/02/21 05:52:25;;;;;;;18.98;3.67;;;4.80;99.90;;;;;;5042155;28;20072;-60
2022/02/21 05:54:51;;;;;;;15.00;3.28;;;4.80;99.90;;;;;;5040337;28;20057;-60
2022/02/21 05:57:17;;;;;;;20.02;3.13;;;4.80;99.90;;;;;;5038985;28;20041;-63
2022/02/21 05:59:43;;;;;;;16.58;3.60;;;4.90;99.90;;;;;;5043160;28;20460;-63
2022/02/21 06:02:09;;;;;;;15.45;3.95;;;4.90;99.90;;;;;;5039686;28;20393;-63
2022/02/21 06:04:35;;;;;;;20.10;3.30;;;4.90;99.90;;;;;;5039221;28;20041;-63
2022/02/21 06:07:01;;;;;;;13.93;3.67;;;4.80;99.90;;;;;;5041433;28;20084;-62
2022/02/21 06:09:28;;;;;;;16.40;3.30;;;4.80;99.90;;;;;;5041976;28;20055;-63
2022/02/21 06:11:54;;;;;;;19.02;4.28;;;4.90;99.90;;;;;;5037389;28;20053;-63
2022/02/21 06:14:20;;;;;;;20.35;3.70;;;4.80;99.90;;;;;;5024401;28;20051;-63
2022/02/21 06:16:46;;;;;;;14.70;4.05;;;4.90;99.90;;;;;;5043209;28;20053;-64
2022/02/21 06:19:13;;;;;;;17.90;3.90;;;4.90;99.90;;;;;;5040547;28;20074;-63
2022/02/21 06:21:39;;;;;;;17.02;4.20;;;4.90;99.90;;;;;;5046010;28;20091;-63
2022/02/21 06:24:05;;;;;;;22.30;4.13;;;4.80;99.90;;;;;;5028360;28;20045;-63
2022/02/21 06:26:31;;;;;;;20.85;3.97;;;4.80;99.90;;;;;;5027710;28;20144;-63
2022/02/21 06:28:57;;;;;;;20.35;3.75;;;4.90;99.90;;;;;;5045712;28;20080;-63
2022/02/21 06:31:23;;;;;;;15.18;3.22;;;4.90;99.90;;;;;;5045387;28;20778;-62
2022/02/21 06:33:49;;;;;;;19.27;4.00;;;5.00;99.90;;;;;;5027929;28;20569;-63
2022/02/21 06:36:16;;;;;;;14.63;3.47;;;4.90;99.90;;;;;;5044016;28;20049;-63
2022/02/21 06:38:42;;;;;;;15.95;3.90;;;4.90;99.90;;;;;;5045499;28;20057;-63
2022/02/21 06:41:08;;;;;;;12.60;3.88;;;5.00;99.90;;;;;;5045856;28;20049;-63
2022/02/21 06:43:34;;;;;;;16.92;3.97;;;5.00;99.90;;;;;;5009888;28;20057;-63
2022/02/21 06:46:00;;;;;;;20.65;4.20;;;5.00;99.90;;;;;;5040890;28;20487;-63
2022/02/21 06:48:26;;;;;;;14.02;4.03;;;4.90;99.90;;;;;;5044448;28;20118;-64
2022/02/21 06:50:54;;;;;;;16.60;3.63;;;5.00;99.90;;;;;;5046808;28;20036;-63
2022/02/21 06:53:21;;;;;;;16.17;4.07;;;5.00;99.90;;;;;;5044208;28;20445;-63
2022/02/21 06:55:47;;;;;;;25.65;4.82;;;5.00;99.90;;;;;;5046217;28;20557;-63
2022/02/21 06:58:13;;;;;;;18.15;4.07;;;5.00;99.90;;;;;;5044513;28;20459;-63
2022/02/21 07:00:40;;;;;;;21.83;4.18;;;5.00;99.90;;;;;;5055683;28;20290;-63
2022/02/21 07:03:06;;;;;;;20.00;3.72;;;5.00;99.90;;;;;;5019266;28;20187;-63
2022/02/21 07:05:32;;;;;;;19.38;5.47;;;5.00;99.90;;;;;;5033960;28;20083;-63
2022/02/21 07:07:58;;;;;;;17.95;4.05;;;5.00;99.90;;;;;;5037127;28;20347;-63
2022/02/21 07:10:24;;;;;;;18.50;4.75;;;5.00;99.90;;;;;;5036853;28;20041;-63
2022/02/21 07:12:51;;;;;;;16.48;4.85;;;5.00;99.90;;;;;;5038143;28;20040;-63
2022/02/21 07:15:17;;;;;;;14.15;4.15;;;5.10;99.90;;;;;;5041485;28;20076;-63
2022/02/21 07:17:43;;;;;;;21.73;4.00;;;5.00;99.90;;;;;;5044527;28;20045;-63
2022/02/21 07:20:12;;;;;;;19.67;4.32;;;5.00;99.90;;;;;;5044348;28;20128;-63
2022/02/21 07:22:44;;;;;;;24.15;4.68;;;5.10;99.90;;;;;;5042884;28;20387;-63
2022/02/21 07:25:12;;;;;;;21.75;4.80;;;5.10;99.90;;;;;;5042740;28;20072;-61
2022/02/21 07:27:50;;;;;;;17.63;4.35;;;5.10;99.90;;;;;;5025841;28;20052;-60
2022/02/21 07:30:18;;;;;;;22.58;5.50;;;5.10;99.90;;;;;;5037926;28;20131;-61
2022/02/21 07:32:44;;;;;;;22.08;5.55;;;5.20;99.90;;;;;;5040016;28;20640;-60
2022/02/21 07:35:11;;;;;;;20.90;4.32;;;5.20;99.90;;;;;;5036986;28;20560;-60
2022/02/21 07:37:41;;;;;;;20.73;5.20;;;5.10;99.90;;;;;;5040482;28;20041;-60
2022/02/21 07:40:09;;;;;;;20.38;4.45;;;5.10;99.90;;;;;;5040507;28;20163;-61
2022/02/21 07:42:35;;;;;;;17.75;4.03;;;5.20;99.90;;;;;;5039741;28;20400;-60
2022/02/21 07:45:03;;;;;;;18.48;3.58;;;5.20;99.90;;;;;;5035757;28;20059;-59
2022/02/21 07:47:29;;;;;;;19.50;5.00;;;5.30;99.90;;;;;;5053233;28;20041;-60
2022/02/21 07:49:55;;;;;;;22.23;4.55;;;5.30;99.90;;;;;;5056503;28;20380;-63
2022/02/21 07:52:21;;;;;;;25.08;4.57;;;5.30;99.90;;;;;;5041532;28;20061;-60
2022/02/21 07:54:47;;;;;;;26.05;4.85;;;5.30;99.90;;;;;;5024352;28;20049;-60
2022/02/21 07:57:14;;;;;;;17.73;5.10;;;5.30;99.90;;;;;;5040673;28;20362;-60
2022/02/21 07:59:40;;;;;;;25.60;4.65;;;5.30;99.90;;;;;;5038984;28;20045;-61
2022/02/21 08:02:07;;;;;;;16.92;3.95;;;5.40;99.90;;;;;;5022048;28;20053;-60
2022/02/21 08:04:33;;;;;;;22.95;4.93;;;5.40;99.90;;;;;;5039382;28;20507;-61
2022/02/21 08:07:00;;;;;;;21.17;4.68;;;5.30;99.90;;;;;;5054273;28;20045;-60
2022/02/21 08:09:26;;;;;;;17.65;3.97;;;5.30;99.90;;;;;;5041750;28;20059;-60
2022/02/21 08:11:52;;;;;;;21.13;4.80;;;5.30;99.90;;;;;;5041148;28;20045;-60
2022/02/21 08:14:18;;;;;;;21.60;4.85;;;5.40;99.90;;;;;;5022186;28;20110;-60
2022/02/21 08:16:44;;;;;;;22.85;4.85;;;5.40;99.90;;;;;;5023610;28;20135;-60
2022/02/21 08:19:11;;;;;;;19.27;4.45;;;5.40;99.90;;;;;;5039131;28;20057;-60
2022/02/21 08:21:37;;;;;;;21.25;4.95;;;5.50;99.90;;;;;;5037810;28;20040;-60
2022/02/21 08:24:05;;;;;;;27.35;4.10;;;5.40;99.90;;;;;;5006216;28;20136;-59
2022/02/21 08:26:32;;;;;;;21.80;4.22;;;5.30;99.90;;;;;;5039142;28;20081;-60
2022/02/21 08:28:58;;;;;;;24.77;5.85;;;5.10;99.90;;;;;;5039551;28;20499;-60
2022/02/21 08:31:24;;;;;;;28.25;5.18;;;5.00;99.90;;;;;;5040451;28;20051;-61
2022/02/21 08:33:50;;;;;;;20.98;5.03;;;4.90;99.90;;;;;;5039962;28;20080;-59
2022/02/21 08:36:16;;;;;;;22.98;4.43;;;4.80;99.90;;;;;;5041130;28;20405;-60
2022/02/21 08:38:42;;;;;;;24.65;5.18;;;4.70;99.90;;;;;;5040895;28;20124;-60
2022/02/21 08:41:10;;;;;;;20.73;4.38;;;4.70;99.90;;;;;;5040563;28;20504;-60
2022/02/21 08:43:36;;;;;;;18.98;4.22;;;4.60;99.90;;;;;;5043059;28;20124;-60
2022/02/21 08:46:02;;;;;;;26.65;7.15;;;4.60;99.90;;;;;;5038372;28;20045;-60
2022/02/21 08:48:28;;;;;;;23.85;4.75;;;4.50;99.90;;;;;;5040887;28;20595;-59
2022/02/21 08:50:54;;;;;;;23.15;4.03;;;4.60;99.90;;;;;;5038253;28;20072;-59
2022/02/21 08:53:20;;;;;;;16.92;3.92;;;4.30;99.90;;;;;;5038658;28;20863;-59
2022/02/21 08:55:46;;;;;;;22.85;4.13;;;4.20;99.90;;;;;;5038881;28;20041;-58
2022/02/21 08:58:13;;;;;;;20.38;5.15;;;3.90;99.90;;;;;;5036187;28;20045;-59
2022/02/21 09:00:41;;;;;;;22.42;5.45;;;3.80;99.90;;;;;;5022073;28;20085;-59
2022/02/21 09:03:08;;;;;;;16.17;3.50;;;3.80;99.90;;;;;;5038491;28;20080;-58
2022/02/21 09:05:35;;;;;;;17.77;3.35;;;3.70;99.90;;;;;;5036777;28;20117;-58
2022/02/21 09:08:01;;;;;;;12.30;2.40;;;3.60;99.90;;;;;;5041053;28;20040;-58
2022/02/21 09:10:27;;;;;;;14.05;3.13;;;3.40;99.90;;;;;;5041452;28;20091;-58
2022/02/21 09:12:53;;;;;;;18.42;2.92;;;3.40;99.90;;;;;;5039687;28;20048;-57
2022/02/21 09:15:20;;;;;;;12.75;2.45;;;3.30;99.90;;;;;;5038072;28;20067;-57
2022/02/21 09:17:47;;;;;;;8.07;2.15;;;3.20;99.90;;;;;;5038820;28;20406;-58
2022/02/21 09:20:15;;;;;;;13.35;2.88;;;3.00;99.90;;;;;;5038005;28;20372;-58
2022/02/21 09:22:41;;;;;;;16.83;2.90;;;2.90;99.90;;;;;;5040635;28;21882;-58
2022/02/21 09:25:09;;;;;;;15.85;3.08;;;2.80;99.90;;;;;;5040495;28;20049;-58
2022/02/21 09:27:35;;;;;;;10.13;2.20;;;2.80;99.90;;;;;;5037403;28;20079;-58
2022/02/21 09:30:06;;;;;;;10.30;1.90;;;2.80;99.90;;;;;;5055404;28;20561;-58
2022/02/21 09:32:32;;;;;;;9.77;2.83;;;2.80;99.90;;;;;;5038741;28;20056;-57
2022/02/21 09:34:58;;;;;;;8.05;2.03;;;2.70;99.90;;;;;;5037586;28;20049;-62
2022/02/21 09:37:27;;;;;;;5.50;1.90;;;2.70;99.90;;;;;;5039799;28;20045;-62
2022/02/21 09:39:54;;;;;;;6.47;1.48;;;2.70;99.90;;;;;;5038791;28;20646;-62
2022/02/21 09:42:23;;;;;;;8.10;1.90;;;2.50;99.90;;;;;;5041174;28;20071;-62
2022/02/21 09:44:49;;;;;;;10.68;2.40;;;2.50;99.90;;;;;;5037217;28;20041;-62
2022/02/21 09:47:17;;;;;;;8.85;2.20;;;2.40;99.90;;;;;;5021333;28;20041;-63
2022/02/21 09:49:43;;;;;;;11.75;2.60;;;2.30;99.90;;;;;;5041650;28;20076;-63
2022/02/21 09:52:09;;;;;;;8.55;3.13;;;2.20;99.90;;;;;;5041755;28;20071;-62
2022/02/21 09:54:38;;;;;;;9.20;2.42;;;2.20;99.90;;;;;;5059084;28;20527;-63
2022/02/21 09:57:04;;;;;;;7.22;2.30;;;2.30;99.90;;;;;;5043521;28;20049;-63
2022/02/21 09:59:30;;;;;;;10.35;2.50;;;2.30;99.90;;;;;;5042620;28;20041;-59
2022/02/21 10:01:57;;;;;;;9.40;2.70;;;2.30;99.90;;;;;;5025166;28;20049;-59
2022/02/21 10:04:26;;;;;;;9.27;2.88;;;2.30;99.90;;;;;;5024455;28;20138;-59
2022/02/21 10:06:54;;;;;;;10.00;2.50;;;2.30;99.90;;;;;;5024537;28;20037;-59
2022/02/21 10:09:24;;;;;;;9.60;2.28;;;2.30;99.90;;;;;;5041090;28;20041;-58
2022/02/21 10:11:50;;;;;;;5.88;2.28;;;2.20;99.90;;;;;;5043030;28;20059;-59
2022/02/21 10:14:20;;;;;;;6.40;2.08;;;2.20;99.90;;;;;;5043252;28;20052;-59
2022/02/21 10:16:52;;;;;;;9.65;2.50;;;2.20;99.90;;;;;;5041349;28;20814;-58
2022/02/21 10:19:20;;;;;;;;;;;2.30;99.90;;;;;;5044775;28;20057;-60
2022/02/21 10:22:13;;;;;;;6.68;2.55;;;2.20;99.90;;;;;;5042959;28;20269;-63
2022/02/21 10:24:42;;;;;;;5.93;2.10;;;2.30;99.90;;;;;;5043047;28;20134;-62
2022/02/21 10:27:15;;;;;;;10.15;2.78;;;2.40;99.90;;;;;;5044102;28;20049;-63
2022/02/21 10:29:55;;;;;;;4.88;2.47;;;2.40;99.90;;;;;;5043405;28;20076;-63
2022/02/21 10:32:25;;;;;;;7.82;1.80;;;2.30;99.90;;;;;;5039406;28;20052;-64
2022/02/21 10:34:52;;;;;;;4.15;1.85;;;2.10;99.90;;;;;;5041158;28;20044;-63
2022/02/21 10:37:28;;;;;;;7.40;2.50;;;2.00;99.90;;;;;;5041732;28;20071;-62
2022/02/21 10:40:12;;;;;;;6.30;2.50;;;1.90;99.90;;;;;;5039676;28;20079;-59
2022/02/21 10:42:40;;;;;;;7.45;2.47;;;1.90;99.90;;;;;;5041733;28;20116;-59
2022/02/21 10:45:17;;;;;;;6.65;2.20;;;2.00;99.90;;;;;;5043497;28;20866;-59
2022/02/21 10:48:00;;;;;;;7.43;2.78;;;2.00;99.90;;;;;;5040821;28;20378;-59
2022/02/21 10:50:30;;;;;;;4.00;1.67;;;1.90;99.90;;;;;;5041586;28;20127;-59
2022/02/21 10:52:57;;;;;;;4.70;1.88;;;1.90;99.90;;;;;;5024427;28;20488;-59
2022/02/21 10:55:35;;;;;;;3.95;1.80;;;1.60;99.90;;;;;;5043438;28;20851;-59
2022/02/21 10:58:20;;;;;;;3.53;1.70;;;1.50;99.90;;;;;;5042051;28;20653;-59
2022/02/21 11:00:49;;;;;;;4.68;1.63;;;1.50;99.90;;;;;;5043157;28;20056;-59
2022/02/21 11:03:20;;;;;;;4.78;1.70;;;1.40;99.90;;;;;;5007235;28;20120;-58
2022/02/21 11:05:48;;;;;;;5.55;2.10;;;1.30;99.90;;;;;;5006933;28;20132;-58
2022/02/21 11:08:19;;;;;;;6.35;2.45;;;1.40;99.90;;;;;;5041790;28;20504;-59
2022/02/21 11:10:52;;;;;;;5.45;2.35;;;1.50;99.90;;;;;;5040990;28;20084;-59
2022/02/21 11:13:20;;;;;;;9.60;3.05;;;1.70;99.90;;;;;;5039561;28;20129;-59
2022/02/21 11:15:48;;;;;;;7.60;2.78;;;1.90;99.90;;;;;;5041498;28;20052;-59
2022/02/21 11:18:17;;;;;;;5.63;2.58;;;2.10;99.90;;;;;;5023711;28;20053;-59
2022/02/21 11:20:44;;;;;;;6.18;2.35;;;2.30;99.90;;;;;;5042027;28;20052;-59
2022/02/21 11:23:11;;;;;;;8.13;2.90;;;2.40;99.90;;;;;;5039872;28;20048;-59
2022/02/21 11:25:58;;;;;;;9.68;3.10;;;2.50;99.90;;;;;;5025884;28;20048;-59
2022/02/21 11:28:29;;;;;;;11.27;3.40;;;2.60;99.90;;;;;;5041341;28;20072;-59
2022/02/21 11:31:00;;;;;;;9.73;3.38;;;2.70;99.90;;;;;;5041451;28;20127;-59
2022/02/21 11:33:26;;;;;;;9.80;3.78;;;2.90;99.90;;;;;;5041386;28;20045;-59
2022/02/21 11:36:13;;;;;;;12.38;4.18;;;3.10;99.90;;;;;;5056489;28;20115;-60
2022/02/21 11:38:41;;;;;;;11.57;3.30;;;3.20;99.90;;;;;;5038048;28;20116;-59
2022/02/21 11:41:10;;;;;;;12.20;3.65;;;3.40;99.90;;;;;;5041682;28;20076;-64
2022/02/21 11:43:39;;;;;;;10.43;4.47;;;3.50;99.90;;;;;;5038569;28;20045;-64
2022/02/21 11:46:10;;;;;;;13.27;4.68;;;3.70;99.90;;;;;;5039519;28;20074;-64
2022/02/21 11:48:57;;;;;;;13.57;4.03;;;3.80;99.90;;;;;;5040058;28;20623;-59
2022/02/21 11:51:36;;;;;;;17.52;4.60;;;3.90;99.90;;;;;;5040407;28;20045;-59
2022/02/21 11:54:11;;;;;;;16.58;4.18;;;4.00;99.90;;;;;;5041396;28;20443;-59
2022/02/21 11:59:22;;;;;;;17.77;5.13;;;4.30;99.90;;;;;;5040320;28;20044;-64
2022/02/21 12:02:02;;;;;;;21.67;5.55;;;4.30;99.90;;;;;;5041516;28;20083;-64
2022/02/21 12:04:44;;;;;;;20.90;5.45;;;4.40;99.90;;;;;;5041547;28;20553;-64
2022/02/21 12:07:21;;;;;;;26.42;6.05;;;4.50;99.90;;;;;;5041350;28;20126;-64
2022/02/21 12:10:14;;;;;;;24.85;6.05;;;4.70;99.90;;;;;;5040835;28;20048;-64
2022/02/21 12:13:08;;;;;;;28.40;6.40;;;4.80;99.90;;;;;;5040209;28;20048;-64
2022/02/21 12:15:35;;;;;;;30.02;5.85;;;4.80;99.90;;;;;;5042101;28;20538;-64
2022/02/21 12:18:07;;;;;;;24.38;5.90;;;5.00;99.90;;;;;;5039412;28;20130;-65
2022/02/21 12:20:34;;;;;;;;;;;5.00;99.90;;;;;;5025311;28;20041;-64
2022/02/21 12:23:15;;;;;;;26.45;5.80;;;5.10;99.90;;;;;;5024102;28;20011;-64
2022/02/21 12:26:04;;;;;;;50.63;7.95;;;5.30;99.90;;;;;;5025587;28;20111;-64
2022/02/21 12:28:34;;;;;;;35.28;6.70;;;5.30;99.90;;;;;;5037862;28;20053;-64
2022/02/21 12:31:01;;;;;;;39.78;6.32;;;5.50;99.90;;;;;;5042470;28;20821;-64
2022/02/21 12:33:32;;;;;;;36.67;7.80;;;5.60;99.90;;;;;;5041222;28;20430;-64
2022/02/21 12:36:07;;;;;;;41.05;8.05;;;5.70;99.90;;;;;;5043029;28;20163;-63
2022/02/21 12:38:34;;;;;;;42.35;7.68;;;5.80;99.90;;;;;;5041266;28;20511;-64
2022/02/21 12:41:14;;;;;;;40.90;6.75;;;5.90;99.90;;;;;;5041505;28;20083;-63
2022/02/21 12:43:54;;;;;;;45.25;7.63;;;6.00;99.90;;;;;;5042641;28;20049;-65
2022/02/21 12:46:23;;;;;;;36.65;7.22;;;6.20;99.90;;;;;;5041006;28;20068;-64
2022/02/21 12:48:50;;;;;;;36.72;7.10;;;6.20;99.90;;;;;;5040860;28;20124;-64
2022/02/21 12:51:38;;;;;;;43.42;7.47;;;6.30;99.90;;;;;;5042572;28;20040;-64
2022/02/21 12:54:11;;;;;;;31.25;6.50;;;6.40;99.90;;;;;;5025257;28;20053;-64
2022/02/21 12:56:52;;;;;;;33.20;6.50;;;6.40;99.90;;;;;;5042212;28;20182;-64